Time;durP1;ratioP1;P1;durP2;ratioP2;P2;SDS_P1;SDS_P2;PMS_P1;PMS_P2;Temp;Humidity;BMP_temperature;BMP_pressure;BME280_temperature;BME280_humidity;BME280_pressure;Samples;Min_cycle;Max_cycle;Signal;HPM_P1;HPM_P2
2021/07/22 00:00:09;;;;;;;12.55;5.53;;;14.10;99.90;;;;;;6306269;22;20027;-75
2021/07/22 00:02:41;;;;;;;8.25;6.30;;;14.00;99.90;;;;;;6285517;22;20478;-75
2021/07/22 00:05:09;;;;;;;7.60;4.97;;;13.90;99.90;;;;;;6315643;22;20011;-75
2021/07/22 00:07:37;;;;;;;7.25;5.18;;;13.80;99.90;;;;;;6309381;22;20023;-75
2021/07/22 00:10:06;;;;;;;9.45;4.85;;;13.80;99.90;;;;;;6288291;22;20034;-75
2021/07/22 00:12:33;;;;;;;8.10;5.20;;;13.80;99.90;;;;;;6304315;22;20031;-75
2021/07/22 00:15:01;;;;;;;11.35;5.97;;;13.80;99.90;;;;;;6310636;22;20458;-75
2021/07/22 00:17:29;;;;;;;5.43;4.22;;;13.90;99.90;;;;;;6315686;22;20026;-75
2021/07/22 00:19:56;;;;;;;10.43;6.25;;;13.80;99.90;;;;;;6306982;22;20462;-75
2021/07/22 00:22:24;;;;;;;10.20;5.35;;;13.70;99.90;;;;;;6314101;22;20314;-75
2021/07/22 00:24:52;;;;;;;8.20;5.05;;;13.50;99.90;;;;;;6315401;22;20011;-75
2021/07/22 00:27:20;;;;;;;8.40;4.85;;;13.50;99.90;;;;;;6309969;22;20022;-75
2021/07/22 00:29:53;;;;;;;7.80;4.05;;;13.50;99.90;;;;;;6314333;22;20012;-75
2021/07/22 00:32:21;;;;;;;6.60;4.82;;;13.50;99.90;;;;;;6305561;22;20034;-75
2021/07/22 00:34:49;;;;;;;22.65;6.15;;;13.50;99.90;;;;;;6312333;22;20339;-75
2021/07/22 00:37:17;;;;;;;9.95;4.95;;;13.40;99.90;;;;;;6315583;22;20026;-75
2021/07/22 00:39:47;;;;;;;9.05;5.15;;;13.50;99.90;;;;;;6308039;22;20019;-75
2021/07/22 00:42:18;;;;;;;9.00;5.05;;;13.50;99.90;;;;;;6276334;22;20015;-75
2021/07/22 00:44:46;;;;;;;7.90;5.18;;;13.50;99.90;;;;;;6287521;22;20015;-75
2021/07/22 00:47:15;;;;;;;5.82;4.53;;;13.30;99.90;;;;;;6283124;22;20011;-75
2021/07/22 00:49:49;;;;;;;6.53;4.30;;;13.20;99.90;;;;;;6315414;22;20088;-75
2021/07/22 00:52:18;;;;;;;8.65;6.82;;;13.20;99.90;;;;;;6305610;22;20450;-75
2021/07/22 00:54:48;;;;;;;17.58;5.03;;;13.20;99.90;;;;;;6284304;22;20025;-75
2021/07/22 00:57:17;;;;;;;6.28;5.38;;;13.20;99.90;;;;;;6315250;22;20227;-75
2021/07/22 00:59:46;;;;;;;8.65;5.20;;;13.20;99.90;;;;;;6307297;22;20338;-75
2021/07/22 01:02:13;;;;;;;9.80;4.78;;;13.20;99.90;;;;;;6275708;22;20015;-76
2021/07/22 01:04:41;;;;;;;9.85;5.00;;;13.30;99.90;;;;;;6315649;22;20018;-75
2021/07/22 01:07:10;;;;;;;10.65;5.75;;;13.30;99.90;;;;;;6282929;22;20019;-75
2021/07/22 01:09:38;;;;;;;10.07;6.03;;;13.40;99.90;;;;;;6314985;22;20015;-75
2021/07/22 01:12:06;;;;;;;10.77;5.50;;;13.30;99.90;;;;;;6279093;22;20354;-75
2021/07/22 01:14:34;;;;;;;8.77;5.05;;;13.40;99.90;;;;;;6275851;22;20015;-75
2021/07/22 01:17:46;;;;;;;11.43;6.72;;;13.40;99.90;;;;;;6287126;22;20007;-75
2021/07/22 01:20:20;;;;;;;;;;;13.40;99.90;;;;;;6251318;22;20026;-75
2021/07/22 01:22:50;;;;;;;8.48;5.78;;;13.40;99.90;;;;;;6284435;22;19919;-75
2021/07/22 01:25:19;;;;;;;7.50;5.40;;;13.40;99.90;;;;;;6314845;22;20019;-75
2021/07/22 01:27:50;;;;;;;7.73;5.40;;;13.30;99.90;;;;;;6307586;22;20031;-75
2021/07/22 01:30:19;;;;;;;7.32;5.03;;;13.20;99.90;;;;;;6259717;22;20502;-75
2021/07/22 01:32:48;;;;;;;10.23;6.07;;;13.20;99.90;;;;;;6251552;22;20019;-75
2021/07/22 01:35:16;;;;;;;10.25;5.82;;;13.10;99.90;;;;;;6275927;22;20058;-75
2021/07/22 01:37:44;;;;;;;9.82;6.75;;;13.20;99.90;;;;;;6315053;22;20015;-75
2021/07/22 01:40:14;;;;;;;7.40;5.25;;;13.20;99.90;;;;;;6277764;22;20474;-75
2021/07/22 01:42:42;;;;;;;19.23;9.65;;;13.20;99.90;;;;;;6283679;22;20031;-75
2021/07/22 01:45:12;;;;;;;12.93;6.00;;;13.00;99.90;;;;;;6313981;22;20011;-75
2021/07/22 01:47:46;;;;;;;14.30;7.20;;;13.00;99.90;;;;;;6307904;22;20031;-75
2021/07/22 01:50:14;;;;;;;8.57;4.97;;;12.90;99.90;;;;;;6286692;22;20015;-75
2021/07/22 01:52:43;;;;;;;7.65;4.93;;;12.90;99.90;;;;;;6315041;22;20015;-75
2021/07/22 01:55:11;;;;;;;11.15;5.38;;;12.90;99.90;;;;;;6308852;22;20011;-75
2021/07/22 01:57:49;;;;;;;11.25;6.43;;;13.00;99.90;;;;;;6314623;22;20446;-75
2021/07/22 02:00:20;;;;;;;17.23;7.20;;;13.00;99.90;;;;;;6276373;22;20015;-75
2021/07/22 02:02:55;;;;;;;7.38;4.80;;;13.00;99.90;;;;;;6311118;22;20023;-75
2021/07/22 02:05:28;;;;;;;5.90;4.90;;;13.00;99.90;;;;;;6287255;22;20016;-76
2021/07/22 02:07:59;;;;;;;8.93;6.78;;;12.90;99.90;;;;;;6306656;22;20472;-75
2021/07/22 02:10:27;;;;;;;10.27;7.32;;;12.80;99.90;;;;;;6285326;22;20015;-75
2021/07/22 02:12:54;;;;;;;10.13;5.70;;;12.80;99.90;;;;;;6287242;22;20015;-75
2021/07/22 02:15:32;;;;;;;9.63;6.30;;;12.80;99.90;;;;;;6279731;22;20030;-75
2021/07/22 02:18:00;;;;;;;15.50;7.78;;;12.80;99.90;;;;;;6287354;22;20026;-75
2021/07/22 02:20:28;;;;;;;9.77;6.18;;;12.90;99.90;;;;;;6303810;22;20023;-75
2021/07/22 02:22:57;;;;;;;11.15;6.85;;;12.90;99.90;;;;;;6310509;22;20463;-75
2021/07/22 02:25:48;;;;;;;8.53;7.10;;;12.90;99.90;;;;;;6219148;22;20229;-75
2021/07/22 02:28:15;;;;;;;22.00;7.18;;;12.90;99.90;;;;;;6305319;22;20054;-75
2021/07/22 02:30:45;;;;;;;11.70;5.93;;;12.90;99.90;;;;;;6282632;22;20522;-75
2021/07/22 02:33:16;;;;;;;17.55;8.52;;;13.00;99.90;;;;;;6287167;22;20018;-75
2021/07/22 02:35:43;;;;;;;7.38;5.22;;;12.90;99.90;;;;;;6274524;22;20035;-75
2021/07/22 02:38:30;;;;;;;11.55;7.25;;;12.90;99.90;;;;;;6281788;22;20016;-75
2021/07/22 02:41:00;;;;;;;9.55;5.45;;;12.80;99.90;;;;;;6285971;22;20026;-75
2021/07/22 02:43:27;;;;;;;11.52;5.68;;;12.70;99.90;;;;;;6249749;22;20023;-75
2021/07/22 02:46:06;;;;;;;9.70;7.13;;;12.60;99.90;;;;;;6313703;22;20050;-75
2021/07/22 02:48:55;;;;;;;9.23;6.75;;;12.60;99.90;;;;;;6260824;22;20020;-75
2021/07/22 02:51:24;;;;;;;10.13;7.25;;;12.60;99.90;;;;;;6281338;22;20256;-75
2021/07/22 02:53:52;;;;;;;10.55;6.95;;;12.60;99.90;;;;;;6316503;22;20026;-75
2021/07/22 02:56:23;;;;;;;11.80;6.68;;;12.50;99.90;;;;;;6305578;22;20023;-75
2021/07/22 02:58:55;;;;;;;16.30;6.47;;;12.50;99.90;;;;;;6312953;22;20015;-75
2021/07/22 03:01:24;;;;;;;11.27;6.57;;;12.50;99.90;;;;;;6287750;22;20018;-75
2021/07/22 03:03:52;;;;;;;12.35;8.43;;;12.60;99.90;;;;;;6277784;22;20026;-75
2021/07/22 03:06:22;;;;;;;14.35;8.50;;;12.50;99.90;;;;;;6287814;22;20011;-75
2021/07/22 03:08:56;;;;;;;14.02;9.65;;;12.50;99.90;;;;;;6289069;22;20012;-75
2021/07/22 03:11:24;;;;;;;10.77;6.93;;;12.50;99.90;;;;;;6310185;22;20027;-75
2021/07/22 03:13:58;;;;;;;10.20;7.38;;;12.50;99.90;;;;;;6316579;22;20011;-75
2021/07/22 03:16:28;;;;;;;13.50;9.40;;;12.50;99.90;;;;;;6250360;22;20062;-75
2021/07/22 03:19:12;;;;;;;18.08;7.57;;;12.50;99.90;;;;;;6283717;22;20019;-76
2021/07/22 03:22:03;;;;;;;12.10;7.93;;;12.50;99.90;;;;;;6305560;22;20015;-75
2021/07/22 03:24:51;;;;;;;15.95;7.60;;;12.50;99.90;;;;;;6260430;22;20030;-75
2021/07/22 03:27:48;;;;;;;16.60;7.75;;;12.50;99.90;;;;;;6169678;22;20025;-75
2021/07/22 03:30:35;;;;;;;18.50;7.32;;;12.40;99.90;;;;;;6276923;22;20026;-75
2021/07/22 03:33:21;;;;;;;14.90;6.50;;;12.40;99.90;;;;;;6316221;22;20030;-75
2021/07/22 03:35:53;;;;;;;;;;;12.40;99.90;;;;;;6308899;22;20023;-75
2021/07/22 03:38:26;;;;;;;16.75;8.05;;;12.40;99.90;;;;;;6287525;22;19919;-75
2021/07/22 03:41:16;;;;;;;11.48;7.65;;;12.40;99.90;;;;;;6305906;22;20018;-75
2021/07/22 03:43:47;;;;;;;12.18;7.50;;;12.40;99.90;;;;;;6281254;22;20026;-75
2021/07/22 03:46:15;;;;;;;13.90;10.13;;;12.50;99.90;;;;;;6286819;22;20022;-76
2021/07/22 03:48:43;;;;;;;12.23;7.38;;;12.50;99.90;;;;;;6288855;22;20019;-75
2021/07/22 03:51:11;;;;;;;12.35;8.43;;;12.50;99.90;;;;;;6277732;22;20023;-75
2021/07/22 03:53:39;;;;;;;10.82;7.60;;;12.40;99.90;;;;;;6278090;22;20011;-75
2021/07/22 03:56:07;;;;;;;12.20;7.82;;;12.30;99.90;;;;;;6306595;22;20023;-75
2021/07/22 03:58:39;;;;;;;15.80;8.70;;;12.30;99.90;;;;;;6313436;22;20342;-75
2021/07/22 04:01:30;;;;;;;15.93;7.15;;;12.30;99.90;;;;;;6287466;22;20011;-75
2021/07/22 04:04:01;;;;;;;14.10;9.65;;;12.30;99.90;;;;;;6280127;22;20016;-75
2021/07/22 04:06:28;;;;;;;14.77;9.02;;;12.40;99.90;;;;;;6313867;22;20023;-75
2021/07/22 04:08:58;;;;;;;13.73;8.60;;;12.40;99.90;;;;;;6288222;22;20445;-75
2021/07/22 04:11:44;;;;;;;15.55;9.10;;;12.40;99.90;;;;;;6308250;22;20019;-75
2021/07/22 04:14:32;;;;;;;13.50;8.43;;;12.40;99.90;;;;;;6275098;22;20015;-75
2021/07/22 04:17:16;;;;;;;16.02;7.03;;;12.40;99.90;;;;;;6288055;22;20034;-75
2021/07/22 04:20:03;;;;;;;10.75;7.07;;;12.50;99.90;;;;;;6279897;22;20458;-75
2021/07/22 04:22:50;;;;;;;8.35;5.93;;;12.50;99.90;;;;;;6311841;22;20019;-75
2021/07/22 04:25:46;;;;;;;10.07;6.43;;;12.50;99.90;;;;;;6246972;22;20023;-75
2021/07/22 04:28:23;;;;;;;12.40;7.72;;;12.40;99.90;;;;;;6305686;22;20019;-75
2021/07/22 04:30:51;;;;;;;10.75;7.22;;;12.40;99.90;;;;;;6283401;22;20030;-75
2021/07/22 04:33:36;;;;;;;11.20;6.75;;;12.40;99.90;;;;;;6288374;22;20011;-75
2021/07/22 04:36:12;;;;;;;14.23;8.15;;;12.50;99.90;;;;;;6276312;22;20024;-75
2021/07/22 04:39:13;;;;;;;13.55;7.95;;;12.60;99.90;;;;;;6283279;22;20334;-75
2021/07/22 04:42:01;;;;;;;47.15;11.50;;;12.60;99.90;;;;;;6254692;22;20443;-75
2021/07/22 04:44:47;;;;;;;9.88;7.38;;;12.60;99.90;;;;;;6285693;22;20339;-75
2021/07/22 04:47:41;;;;;;;17.40;8.27;;;12.70;99.90;;;;;;6280090;22;20023;-75
2021/07/22 04:50:38;;;;;;;13.75;8.70;;;12.80;99.90;;;;;;6195086;22;20025;-75
2021/07/22 04:53:35;;;;;;;15.82;8.45;;;12.80;99.90;;;;;;6296928;22;20621;-75
2021/07/22 04:56:05;;;;;;;20.15;10.10;;;13.00;99.90;;;;;;6279204;22;20031;-74
2021/07/22 04:58:36;;;;;;;;;;;13.10;99.90;;;;;;6313045;22;20477;-74
2021/07/22 05:01:10;;;;;;;12.27;8.77;;;13.20;99.90;;;;;;6286776;22;19919;-74
2021/07/22 05:03:39;;;;;;;17.92;11.02;;;13.40;99.90;;;;;;6281214;22;20027;-74
2021/07/22 05:06:08;;;;;;;14.75;10.88;;;13.60;99.90;;;;;;6288170;22;20435;-74
2021/07/22 05:09:04;;;;;;;48.78;10.82;;;13.80;99.90;;;;;;6273280;22;20031;-74
2021/07/22 05:12:02;;;;;;;13.73;8.55;;;13.90;99.90;;;;;;6278462;22;20505;-74
2021/07/22 05:14:43;;;;;;;20.13;10.30;;;14.00;99.90;;;;;;6283831;22;20034;-74
2021/07/22 05:17:38;;;;;;;13.88;9.98;;;14.10;99.90;;;;;;6289247;22;20015;-74
2021/07/22 05:20:38;;;;;;;16.25;10.85;;;14.30;99.90;;;;;;6274632;22;20027;-74
2021/07/22 05:23:16;;;;;;;17.63;10.50;;;14.40;99.90;;;;;;6282353;22;20038;-75
2021/07/22 05:25:55;;;;;;;17.00;10.02;;;14.50;99.90;;;;;;6287639;22;20015;-75
2021/07/22 05:28:34;;;;;;;13.27;10.30;;;14.70;99.90;;;;;;6304130;22;20043;-75
2021/07/22 05:31:11;;;;;;;15.85;9.57;;;14.80;99.90;;;;;;6281953;22;20026;-75
2021/07/22 05:34:17;;;;;;;16.58;10.93;;;14.90;99.90;;;;;;6179499;23;20040;-76
2021/07/22 05:37:07;;;;;;;16.50;10.60;;;15.00;99.90;;;;;;6129018;23;20021;-75
2021/07/22 05:39:43;;;;;;;13.07;9.35;;;15.20;99.90;;;;;;6236847;22;20023;-75
2021/07/22 05:42:10;;;;;;;16.20;11.23;;;15.30;99.90;;;;;;6282443;22;20026;-75
2021/07/22 05:44:38;;;;;;;10.05;8.73;;;15.40;99.90;;;;;;6271980;22;20019;-75
2021/07/22 05:47:06;;;;;;;17.33;9.20;;;15.50;99.90;;;;;;6278997;22;20023;-75
2021/07/22 05:49:34;;;;;;;18.60;12.38;;;15.60;99.90;;;;;;6284080;22;20011;-75
2021/07/22 05:52:03;;;;;;;14.45;10.32;;;15.70;99.90;;;;;;6275394;22;20015;-75
2021/07/22 05:54:31;;;;;;;19.08;11.15;;;15.70;99.90;;;;;;6281993;22;20022;-76
2021/07/22 05:56:58;;;;;;;16.80;10.25;;;15.80;99.90;;;;;;6283560;22;20018;-75
2021/07/22 05:59:26;;;;;;;17.02;10.57;;;15.80;99.90;;;;;;6277792;22;20339;-76
2021/07/22 06:01:54;;;;;;;15.63;11.35;;;15.80;99.90;;;;;;6283084;22;20028;-76
2021/07/22 06:04:22;;;;;;;20.45;10.25;;;16.00;99.90;;;;;;6274270;22;20028;-76
2021/07/22 06:06:49;;;;;;;20.55;10.73;;;16.10;99.90;;;;;;6280568;22;20035;-77
2021/07/22 06:09:17;;;;;;;26.48;11.90;;;16.20;99.90;;;;;;6283502;22;20323;-77
2021/07/22 06:11:47;;;;;;;19.33;13.43;;;16.40;99.90;;;;;;6248694;22;20477;-77
2021/07/22 06:14:18;;;;;;;17.58;11.57;;;16.60;99.90;;;;;;6272622;22;20012;-77
2021/07/22 06:16:46;;;;;;;16.60;10.75;;;16.70;99.90;;;;;;6282840;22;20428;-77
2021/07/22 06:19:14;;;;;;;16.33;11.07;;;16.90;99.90;;;;;;6278505;22;20035;-77
2021/07/22 06:21:42;;;;;;;18.10;11.25;;;17.00;99.90;;;;;;6277767;22;20019;-77
2021/07/22 06:24:10;;;;;;;21.00;12.23;;;17.00;99.90;;;;;;6274489;22;20023;-77
2021/07/22 06:26:37;;;;;;;16.67;11.82;;;17.10;99.90;;;;;;6278136;22;20711;-77
2021/07/22 06:29:05;;;;;;;20.10;11.20;;;17.40;99.90;;;;;;6258874;22;20011;-77
2021/07/22 06:31:33;;;;;;;15.20;10.30;;;17.60;99.90;;;;;;6278121;22;20020;-77
2021/07/22 06:34:00;;;;;;;18.40;14.60;;;17.70;99.90;;;;;;6285666;22;20015;-77
2021/07/22 06:36:28;;;;;;;15.88;9.73;;;17.80;99.90;;;;;;6299845;22;20034;-77
2021/07/22 06:39:03;;;;;;;21.08;10.77;;;17.90;99.90;;;;;;6312128;22;20030;-77
2021/07/22 06:41:31;;;;;;;15.57;10.93;;;17.90;99.90;;;;;;6315973;22;20026;-77
2021/07/22 06:43:59;;;;;;;17.17;11.50;;;18.00;99.90;;;;;;6281148;22;20024;-77
2021/07/22 06:46:27;;;;;;;16.65;10.30;;;18.00;99.90;;;;;;6314220;22;20011;-77
2021/07/22 06:48:57;;;;;;;18.20;11.75;;;18.20;99.90;;;;;;6289100;22;20008;-77
2021/07/22 06:51:24;;;;;;;23.05;12.43;;;18.20;99.90;;;;;;6310552;22;20020;-77
2021/07/22 06:53:53;;;;;;;23.10;11.50;;;18.30;99.90;;;;;;6316573;22;20422;-77
2021/07/22 06:56:21;;;;;;;19.73;12.77;;;18.40;99.90;;;;;;6276783;22;20034;-77
2021/07/22 06:58:48;;;;;;;23.40;11.73;;;18.50;99.90;;;;;;6313640;22;20027;-77
2021/07/22 07:01:16;;;;;;;16.70;10.60;;;18.50;99.90;;;;;;6315241;22;20023;-77
2021/07/22 07:03:44;;;;;;;15.80;11.25;;;18.60;99.90;;;;;;6309599;22;20034;-77
2021/07/22 07:06:12;;;;;;;16.30;12.10;;;18.80;99.90;;;;;;6280186;22;20011;-77
2021/07/22 07:08:41;;;;;;;22.77;12.20;;;18.80;99.90;;;;;;6305026;22;20446;-77
2021/07/22 07:11:15;;;;;;;34.28;13.85;;;19.00;99.90;;;;;;6278554;22;20019;-77
2021/07/22 07:13:45;;;;;;;18.90;13.38;;;19.10;99.90;;;;;;6305822;22;20034;-77
2021/07/22 07:16:13;;;;;;;21.67;12.60;;;19.00;99.90;;;;;;6305938;22;20023;-77
2021/07/22 07:18:41;;;;;;;14.07;9.32;;;19.00;99.90;;;;;;6313786;22;20050;-78
2021/07/22 07:21:14;;;;;;;15.88;10.07;;;19.20;99.90;;;;;;6315787;22;20019;-77
2021/07/22 07:23:43;;;;;;;18.52;12.07;;;19.40;99.90;;;;;;6309224;22;20454;-78
2021/07/22 07:26:11;;;;;;;14.43;9.65;;;19.50;99.90;;;;;;6316208;22;20030;-78
2021/07/22 07:28:39;;;;;;;18.85;12.75;;;20.00;99.90;;;;;;6305401;22;20030;-78
2021/07/22 07:31:07;;;;;;;17.48;11.48;;;20.40;99.90;;;;;;6283511;22;20011;-78
2021/07/22 07:33:35;;;;;;;16.58;10.10;;;20.50;99.90;;;;;;6316180;22;20442;-77
2021/07/22 07:36:04;;;;;;;16.33;11.38;;;20.50;99.90;;;;;;6307246;22;20038;-78
2021/07/22 07:38:31;;;;;;;15.18;10.35;;;20.40;99.90;;;;;;6314032;22;20027;-78
2021/07/22 07:40:59;;;;;;;17.70;10.93;;;20.20;99.90;;;;;;6315178;22;20431;-78
2021/07/22 07:43:27;;;;;;;20.30;11.00;;;20.50;99.90;;;;;;6309978;22;20024;-78
2021/07/22 07:45:54;;;;;;;19.52;10.75;;;20.90;99.90;;;;;;6315002;22;20011;-78
2021/07/22 07:48:22;;;;;;;18.73;10.95;;;21.00;99.90;;;;;;6306090;22;20035;-78
2021/07/22 07:50:50;;;;;;;20.20;11.02;;;21.20;99.90;;;;;;6276946;22;20026;-78
2021/07/22 07:53:19;;;;;;;19.10;10.80;;;21.40;99.90;;;;;;6251229;22;20514;-78
2021/07/22 07:55:47;;;;;;;20.17;12.63;;;21.50;99.90;;;;;;6308040;22;20023;-77
2021/07/22 07:58:15;;;;;;;16.80;9.82;;;21.40;99.90;;;;;;6315229;22;20019;-78
2021/07/22 08:00:42;;;;;;;18.55;10.82;;;21.40;99.90;;;;;;6314748;22;20019;-78
2021/07/22 08:03:18;;;;;;;14.27;11.25;;;21.40;99.90;;;;;;6283675;22;20022;-78
2021/07/22 08:05:50;;;;;;;13.50;9.82;;;21.40;99.90;;;;;;6316086;22;20007;-78
2021/07/22 08:08:19;;;;;;;16.55;11.43;;;21.20;99.90;;;;;;6306630;22;20027;-78
2021/07/22 08:10:46;;;;;;;18.33;11.60;;;20.90;99.90;;;;;;6312624;22;20023;-79
2021/07/22 08:13:14;;;;;;;17.40;11.98;;;20.80;99.90;;;;;;6316046;22;20011;-78
2021/07/22 08:15:43;;;;;;;14.55;11.93;;;21.00;99.90;;;;;;6307835;22;20015;-78
2021/07/22 08:18:12;;;;;;;15.60;10.38;;;21.00;99.90;;;;;;6315462;22;20011;-78
2021/07/22 08:20:42;;;;;;;15.60;9.80;;;21.00;99.90;;;;;;6302909;22;20031;-81
2021/07/22 08:23:10;;;;;;;22.13;11.93;;;21.30;99.90;;;;;;6250756;22;20026;-82
2021/07/22 08:25:38;;;;;;;15.75;12.27;;;21.50;99.90;;;;;;6252132;22;20443;-82
2021/07/22 08:28:10;;;;;;;19.15;9.98;;;21.40;99.90;;;;;;6306770;22;20023;-81
2021/07/22 08:30:39;;;;;;;18.63;11.48;;;21.60;99.90;;;;;;6303473;22;20026;-80
2021/07/22 08:33:06;;;;;;;15.48;9.38;;;21.80;99.90;;;;;;6312946;22;20335;-82
2021/07/22 08:35:34;;;;;;;15.25;11.38;;;21.80;99.90;;;;;;6279865;22;20027;-83
2021/07/22 08:38:02;;;;;;;23.48;11.98;;;21.60;99.90;;;;;;6286740;22;20502;-80
2021/07/22 08:40:30;;;;;;;16.98;11.52;;;21.60;99.90;;;;;;6248010;22;20046;-80
2021/07/22 08:43:03;;;;;;;14.85;11.05;;;21.60;99.90;;;;;;6248518;22;20407;-80
2021/07/22 08:45:31;;;;;;;11.73;8.32;;;21.70;99.90;;;;;;6272936;22;20829;-79
2021/07/22 08:48:00;;;;;;;31.85;10.50;;;21.80;99.90;;;;;;6304822;22;20015;-79
2021/07/22 08:50:28;;;;;;;12.75;7.47;;;22.00;99.90;;;;;;6284425;22;20022;-79
2021/07/22 08:52:56;;;;;;;11.90;9.05;;;22.10;99.90;;;;;;6314468;22;20011;-79
2021/07/22 08:55:23;;;;;;;14.55;8.07;;;22.10;99.90;;;;;;6309180;22;20490;-79
2021/07/22 08:57:55;;;;;;;18.23;8.80;;;22.00;99.90;;;;;;6314702;22;20603;-79
2021/07/22 09:00:25;;;;;;;20.23;11.95;;;22.10;99.90;;;;;;6277344;22;20034;-79
2021/07/22 09:02:54;;;;;;;13.18;8.40;;;22.10;99.90;;;;;;6311078;22;20015;-79
2021/07/22 09:05:27;;;;;;;12.60;7.57;;;22.20;99.90;;;;;;6315209;22;20019;-80
2021/07/22 09:07:55;;;;;;;12.95;8.00;;;22.20;99.90;;;;;;6280350;22;20055;-79
2021/07/22 09:10:23;;;;;;;10.27;7.97;;;22.20;99.90;;;;;;6313845;22;20419;-78
2021/07/22 09:12:53;;;;;;;11.23;7.85;;;22.20;99.90;;;;;;6314987;22;20018;-79
2021/07/22 09:15:26;;;;;;;12.27;7.78;;;22.20;99.90;;;;;;6309175;22;20026;-79
2021/07/22 09:18:22;;;;;;;13.73;8.48;;;22.30;99.90;;;;;;6265992;22;20007;-79
2021/07/22 09:20:51;;;;;;;13.40;7.70;;;22.30;99.90;;;;;;6313971;22;20011;-79
2021/07/22 09:23:24;;;;;;;9.15;6.85;;;22.30;99.90;;;;;;6279736;22;20016;-79
2021/07/22 09:25:54;;;;;;;10.73;7.15;;;22.20;99.90;;;;;;6314687;22;20022;-79
2021/07/22 09:28:27;;;;;;;15.07;7.85;;;22.40;99.90;;;;;;6304902;22;20023;-79
2021/07/22 09:30:59;;;;;;;11.88;9.00;;;22.40;99.90;;;;;;6310473;22;20342;-79
2021/07/22 09:33:41;;;;;;;10.73;6.97;;;22.60;99.90;;;;;;6276848;22;20011;-79
2021/07/22 09:36:29;;;;;;;9.00;8.02;;;22.60;99.90;;;;;;6305891;22;20075;-79
2021/07/22 09:39:17;;;;;;;11.00;7.22;;;22.60;99.90;;;;;;6303946;22;20023;-79
2021/07/22 09:41:46;;;;;;;10.80;7.38;;;22.70;99.90;;;;;;6286719;22;20011;-79
2021/07/22 09:44:28;;;;;;;8.90;6.45;;;22.80;99.90;;;;;;6305397;22;20015;-79
2021/07/22 09:47:00;;;;;;;10.45;6.65;;;22.80;99.90;;;;;;6310015;22;20019;-79
2021/07/22 09:49:35;;;;;;;10.45;7.43;;;22.70;99.90;;;;;;6314938;22;20707;-78
2021/07/22 09:52:09;;;;;;;9.90;7.43;;;22.60;99.90;;;;;;6274247;22;20019;-79
2021/07/22 09:54:38;;;;;;;12.65;7.55;;;22.60;99.90;;;;;;6250379;22;20030;-80
2021/07/22 09:57:16;;;;;;;11.02;7.10;;;22.70;99.90;;;;;;6314979;22;20017;-79
2021/07/22 09:59:47;;;;;;;11.40;6.80;;;22.70;99.90;;;;;;6279690;22;20030;-78
2021/07/22 10:02:23;;;;;;;13.23;7.22;;;22.80;99.90;;;;;;6313621;22;20014;-79
2021/07/22 10:05:12;;;;;;;11.50;7.75;;;22.80;99.90;;;;;;6314701;22;20018;-78
2021/07/22 10:07:40;;;;;;;10.88;6.93;;;22.80;99.90;;;;;;6307961;22;20023;-79
2021/07/22 10:10:10;;;;;;;9.40;6.50;;;22.70;99.90;;;;;;6314263;22;20011;-78
2021/07/22 10:12:50;;;;;;;8.30;6.28;;;22.80;99.90;;;;;;6303358;22;20051;-79
2021/07/22 10:15:18;;;;;;;14.67;9.07;;;22.80;99.90;;;;;;6307508;22;20019;-79
2021/07/22 10:17:47;;;;;;;11.95;6.93;;;23.10;99.90;;;;;;6314338;22;20015;-78
2021/07/22 10:20:16;;;;;;;14.35;7.53;;;22.90;99.90;;;;;;6305274;22;20026;-79
2021/07/22 10:22:45;;;;;;;13.48;7.88;;;23.00;99.90;;;;;;6311867;22;20022;-79
2021/07/22 10:25:15;;;;;;;9.05;5.60;;;23.10;99.90;;;;;;6314696;22;20011;-78
2021/07/22 10:27:43;;;;;;;23.48;7.88;;;23.10;99.90;;;;;;6307537;22;20038;-79
2021/07/22 10:30:17;;;;;;;11.05;6.75;;;23.20;99.90;;;;;;6312878;22;20007;-79
2021/07/22 10:32:51;;;;;;;12.03;6.07;;;22.90;99.90;;;;;;6314988;22;20018;-79
2021/07/22 10:35:32;;;;;;;7.13;5.40;;;22.90;99.90;;;;;;6309123;22;20034;-79
2021/07/22 10:38:04;;;;;;;9.60;7.38;;;23.00;99.90;;;;;;6314281;22;20019;-79
2021/07/22 10:40:44;;;;;;;9.40;6.63;;;23.00;99.90;;;;;;6302992;22;20030;-79
2021/07/22 10:43:47;;;;;;;9.32;7.13;;;23.10;99.90;;;;;;6281859;22;20023;-79
2021/07/22 10:46:19;;;;;;;7.18;6.40;;;23.10;99.90;;;;;;6148586;23;20421;-79
2021/07/22 10:48:48;;;;;;;8.85;6.35;;;23.00;99.00;;;;;;6277891;22;20034;-79
2021/07/22 10:51:17;;;;;;;9.00;6.57;;;22.90;99.90;;;;;;6309654;22;20026;-79
2021/07/22 10:53:55;;;;;;;11.85;6.65;;;22.90;99.90;;;;;;6314717;22;20327;-79
2021/07/22 10:56:27;;;;;;;12.15;6.80;;;23.00;99.90;;;;;;6304501;22;20045;-78
2021/07/22 10:58:57;;;;;;;7.25;5.43;;;23.10;98.30;;;;;;6310551;22;20012;-80
2021/07/22 11:01:49;;;;;;;9.15;6.38;;;23.10;98.80;;;;;;6312628;22;20014;-79
2021/07/22 11:04:17;;;;;;;8.90;5.45;;;23.10;98.10;;;;;;6276639;22;20046;-79
2021/07/22 11:07:18;;;;;;;11.27;7.47;;;23.20;99.50;;;;;;6276175;22;20019;-79
2021/07/22 11:10:04;;;;;;;10.30;6.25;;;23.20;99.90;;;;;;6313337;22;20015;-79
2021/07/22 11:12:42;;;;;;;8.32;6.07;;;23.30;99.40;;;;;;6304230;22;20019;-80
2021/07/22 11:15:37;;;;;;;8.00;6.68;;;23.30;99.10;;;;;;6295732;22;20023;-79
2021/07/22 11:18:39;;;;;;;9.20;7.38;;;23.40;99.30;;;;;;6302315;22;20011;-80
2021/07/22 11:21:07;;;;;;;10.68;6.93;;;23.40;99.50;;;;;;6290642;22;20454;-79
2021/07/22 11:23:35;;;;;;;10.00;6.68;;;23.40;97.70;;;;;;6309945;22;20027;-79
2021/07/22 11:26:04;;;;;;;10.43;5.70;;;23.40;99.90;;;;;;6315105;22;20038;-80
2021/07/22 11:28:32;;;;;;;10.80;7.20;;;23.50;97.70;;;;;;6305752;22;20351;-81
2021/07/22 11:31:05;;;;;;;8.70;6.18;;;23.40;98.90;;;;;;6311056;22;20756;-81
2021/07/22 11:33:38;;;;;;;7.97;5.53;;;23.40;97.90;;;;;;6316415;22;20011;-80
2021/07/22 11:36:09;;;;;;;10.10;6.30;;;23.50;99.20;;;;;;6306890;22;20031;-79
2021/07/22 11:38:39;;;;;;;9.07;6.43;;;23.60;99.10;;;;;;6312377;22;20023;-80
2021/07/22 11:41:14;;;;;;;8.30;5.82;;;23.60;98.90;;;;;;6313208;22;20022;-80
2021/07/22 11:43:46;;;;;;;9.38;5.95;;;23.60;99.30;;;;;;6274521;22;20031;-80
2021/07/22 11:46:35;;;;;;;7.95;5.78;;;23.70;99.90;;;;;;6273658;22;20011;-80
2021/07/22 11:49:11;;;;;;;10.88;6.30;;;23.90;98.50;;;;;;6313991;22;20015;-80
2021/07/22 11:51:41;;;;;;;9.60;6.70;;;23.90;97.30;;;;;;6307207;22;20053;-80
2021/07/22 11:54:11;;;;;;;8.13;7.13;;;23.80;97.80;;;;;;6314343;22;20282;-79
2021/07/22 11:56:40;;;;;;;9.52;6.43;;;23.80;97.90;;;;;;6304288;22;20346;-79
2021/07/22 11:59:09;;;;;;;9.23;5.63;;;23.80;97.20;;;;;;6310843;22;20022;-79
2021/07/22 12:01:53;;;;;;;12.98;6.72;;;23.70;95.60;;;;;;6287035;22;20015;-80
2021/07/22 12:04:32;;;;;;;8.75;6.40;;;23.70;95.60;;;;;;6304389;22;20019;-81
2021/07/22 12:07:02;;;;;;;9.60;5.75;;;23.70;97.00;;;;;;6309733;22;20023;-79
2021/07/22 12:09:31;;;;;;;8.95;5.88;;;23.90;97.40;;;;;;6314028;22;20015;-80
2021/07/22 12:12:01;;;;;;;9.10;6.85;;;24.10;96.40;;;;;;6303762;22;20027;-80
2021/07/22 12:14:38;;;;;;;25.05;9.18;;;24.10;93.70;;;;;;6283793;22;20018;-78
2021/07/22 12:17:09;;;;;;;12.05;6.22;;;24.10;97.00;;;;;;6286204;22;20485;-79
2021/07/22 12:19:38;;;;;;;9.80;6.43;;;24.10;96.30;;;;;;6307111;22;20031;-79
2021/07/22 12:22:21;;;;;;;10.80;6.35;;;24.10;96.90;;;;;;6285311;22;20528;-79
2021/07/22 12:25:02;;;;;;;10.93;6.72;;;24.10;94.60;;;;;;6235088;22;20023;-79
2021/07/22 12:27:33;;;;;;;14.95;6.95;;;24.10;95.50;;;;;;6308484;22;20456;-79
2021/07/22 12:30:07;;;;;;;12.98;7.03;;;24.10;96.00;;;;;;6314668;22;20447;-79
2021/07/22 12:32:35;;;;;;;9.00;6.65;;;24.10;94.00;;;;;;6304389;22;20027;-78
2021/07/22 12:35:03;;;;;;;8.98;6.70;;;24.10;97.10;;;;;;6275991;22;20431;-78
2021/07/22 12:37:57;;;;;;;11.25;7.07;;;24.10;96.20;;;;;;6288402;22;20011;-78
2021/07/22 12:40:36;;;;;;;8.07;5.95;;;24.20;96.90;;;;;;6304719;22;20047;-78
2021/07/22 12:43:06;;;;;;;11.60;6.03;;;24.20;96.00;;;;;;6310398;22;20026;-78
2021/07/22 12:45:34;;;;;;;53.45;15.93;;;24.20;94.10;;;;;;6314788;22;20015;-78
2021/07/22 12:48:03;;;;;;;8.93;6.47;;;24.20;98.70;;;;;;6306994;22;20015;-80
2021/07/22 12:50:35;;;;;;;10.63;6.82;;;24.40;93.00;;;;;;6313411;22;20323;-78
2021/07/22 12:53:04;;;;;;;7.68;6.43;;;24.40;95.10;;;;;;6315402;22;20008;-78
2021/07/22 12:55:34;;;;;;;14.95;6.75;;;24.50;94.60;;;;;;6308757;22;20030;-79
2021/07/22 12:58:03;;;;;;;9.30;6.25;;;24.40;92.00;;;;;;6288153;22;20022;-77
2021/07/22 13:00:39;;;;;;;16.27;6.45;;;24.30;92.60;;;;;;6276482;22;20027;-76
2021/07/22 13:03:07;;;;;;;10.05;7.18;;;24.40;94.40;;;;;;6310918;22;20030;-75
2021/07/22 13:05:35;;;;;;;11.52;6.68;;;24.40;94.40;;;;;;6315233;22;20020;-75
2021/07/22 13:08:03;;;;;;;16.92;8.15;;;24.60;94.70;;;;;;6306642;22;20346;-75